Map

Track Data

SID SEASON NUMBER BASIN SUBBASIN NAME ISO_TIME NATURE LAT LON WMO_WIND WMO_PRES WMO_AGENCY TRACK_TYPE DIST2LAND LANDFALL IFLAG USA_AGENCY USA_ATCF_ID USA_LAT USA_LON USA_RECORD USA_STATUS USA_WIND USA_PRES USA_SSHS USA_R34_NE USA_R34_SE USA_R34_SW USA_R34_NW USA_R50_NE USA_R50_SE USA_R50_SW USA_R50_NW USA_R64_NE USA_R64_SE USA_R64_SW USA_R64_NW USA_POCI USA_ROCI USA_RMW USA_EYE TOKYO_LAT TOKYO_LON TOKYO_GRADE TOKYO_WIND TOKYO_PRES TOKYO_R50_DIR TOKYO_R50_LONG TOKYO_R50_SHORT TOKYO_R30_DIR TOKYO_R30_LONG TOKYO_R30_SHORT TOKYO_LAND CMA_LAT CMA_LON CMA_CAT CMA_WIND CMA_PRES HKO_LAT HKO_LON HKO_CAT HKO_WIND HKO_PRES NEWDELHI_LAT NEWDELHI_LON NEWDELHI_GRADE NEWDELHI_WIND NEWDELHI_PRES NEWDELHI_CI NEWDELHI_DP NEWDELHI_POCI REUNION_LAT REUNION_LON REUNION_TYPE REUNION_WIND REUNION_PRES REUNION_TNUM REUNION_CI REUNION_RMW REUNION_R34_NE REUNION_R34_SE REUNION_R34_SW REUNION_R34_NW REUNION_R50_NE REUNION_R50_SE REUNION_R50_SW REUNION_R50_NW REUNION_R64_NE REUNION_R64_SE REUNION_R64_SW REUNION_R64_NW BOM_LAT BOM_LON BOM_TYPE BOM_WIND BOM_PRES BOM_TNUM BOM_CI BOM_RMW BOM_R34_NE BOM_R34_SE BOM_R34_SW BOM_R34_NW BOM_R50_NE BOM_R50_SE BOM_R50_SW BOM_R50_NW BOM_R64_NE BOM_R64_SE BOM_R64_SW BOM_R64_NW BOM_ROCI BOM_POCI BOM_EYE BOM_POS_METHOD BOM_PRES_METHOD NADI_LAT NADI_LON NADI_CAT NADI_WIND NADI_PRES WELLINGTON_LAT WELLINGTON_LON WELLINGTON_WIND WELLINGTON_PRES DS824_LAT DS824_LON DS824_STAGE DS824_WIND DS824_PRES TD9636_LAT TD9636_LON TD9636_STAGE TD9636_WIND TD9636_PRES TD9635_LAT TD9635_LON TD9635_WIND TD9635_PRES TD9635_ROCI NEUMANN_LAT NEUMANN_LON NEUMANN_CLASS NEUMANN_WIND NEUMANN_PRES MLC_LAT MLC_LON MLC_CLASS MLC_WIND MLC_PRES USA_GUST BOM_GUST BOM_GUST_PER REUNION_GUST REUNION_GUST_PER USA_SEAHGT USA_SEARAD_NE USA_SEARAD_SE USA_SEARAD_SW USA_SEARAD_NW STORM_SPEED STORM_DIR
1958007N03171 1958 2 WP MM OPHELIA 1958-01-06 18:00:00 TS 3.10000 170.900 1002 tokyo main 1708 1708 _O____________ -1 3.10000 170.900 2 1002 0 0 0 11 0
1958007N03171 1958 2 WP MM OPHELIA 1958-01-06 21:00:00 TS 3.62501 170.892 main 1750 1750 _P____________ -1 3.62501 170.892 2 1001 0 0 19 359
1958007N03171 1958 2 WP MM OPHELIA 1958-01-07 00:00:00 TS 5.01250 170.863 1000 tokyo main 1873 1873 OOO______OOO__ jtwc_wp WP011958 5.90000 170.900 60 0 4.10000 170.800 2 1000 0 0 0 4.20000 170.900 1 29 1000 5.90000 170.900 TC 60 5.90000 170.900 2 60 5.90000 170.900 60 985 240 18 347
1958007N03171 1958 2 WP MM OPHELIA 1958-01-07 03:00:00 TS 5.32654 170.495 main 1875 1868 PPP______PPP__ WP011958 5.95271 170.385 70 1 4.48748 170.560 2 997 0 0 4.50752 170.568 1 33 997 5.95271 170.385 TC 70 5.94516 170.625 2 65 5.95271 170.385 70 982 240 9 307
1958007N03171 1958 2 WP MM OPHELIA 1958-01-07 06:00:00 TS 5.55667 170.124 995 tokyo main 1877 1869 OOO______OPO__ jtwc_wp WP011958 6.00000 170.000 80 1 4.80000 170.200 2 995 0 0 0 4.80000 170.200 2 38 995 6.00000 170.000 TC 80 5.99223 170.320 2 70 6.00000 170.000 80 979 240 8 300
1958007N03171 1958 2 WP MM OPHELIA 1958-01-07 09:00:00 TS 5.71666 169.817 main 1869 1861 PPP______PPP__ WP011958 6.04226 169.795 80 1 5.06497 169.787 2 992 0 0 5.06498 169.772 2 43 992 6.04226 169.795 TC 80 6.04321 169.955 2 75 6.04226 169.795 80 976 240 7 292
1958007N03171 1958 2 WP MM OPHELIA 1958-01-07 12:00:00 TS 5.83333 169.433 990 tokyo main 1855 1837 OOO______OOO__ jtwc_wp WP011958 6.10000 169.500 80 1 5.30000 169.300 9 990 0 0 0 5.30000 169.300 3 48 990 6.10000 169.500 TC 80 6.10000 169.500 3 80 6.10000 169.500 80 974 240 10 284
1958007N03171 1958 2 WP MM OPHELIA 1958-01-07 15:00:00 TS 5.97038 168.815 main 1841 1820 PPP______PPP__ WP011958 6.20028 168.788 80 1 5.55749 168.765 9 985 0 0 5.49994 168.822 3 58 985 6.20028 168.788 TC 80 6.16403 168.938 3 80 6.20028 168.788 80 971 240 13 282
1958007N03171 1958 2 WP MM OPHELIA 1958-01-07 18:00:00 TS 6.10590 168.134 980 tokyo main 1815 1801 OOO______OPO__ jtwc_wp WP011958 6.30000 168.000 80 1 5.80000 168.200 9 980 0 0 0 5.70000 168.300 4 68 980 6.30000 168.000 TC 80 6.23540 168.302 3 80 6.30000 168.000 80 969 240 13 281
1958007N03171 1958 2 WP MM OPHELIA 1958-01-07 21:00:00 TS 6.22015 167.567 main 1801 1789 PPP______PPP__ WP011958 6.34982 167.462 80 1 6.00742 167.657 9 970 0 0 5.94998 167.715 4 87 970 6.34982 167.462 TC 80 6.31401 167.641 3 80 6.34982 167.462 80 966 240 11 282
1958007N03171 1958 2 WP MM OPHELIA 1958-01-08 00:00:00 TS 6.33333 167.033 960 tokyo main 1785 1778 OOO______OOO__ jtwc_wp WP011958 6.40000 167.000 80 1 6.20000 167.100 9 960 0 0 0 6.20000 167.100 6 106 960 6.40000 167.000 TC 80 6.40000 167.000 4 80 6.40000 167.000 80 964 240 11 283
1958007N03171 1958 2 WP MM OPHELIA 1958-01-08 03:00:00 TS 6.46287 166.493 main 1785 1773 PPP______PPP__ WP011958 6.49243 166.508 90 2 6.39998 166.500 9 950 0 0 6.40745 166.492 6 125 950 6.49243 166.508 TC 90 6.49252 166.442 4 85 6.49243 166.508 90 962 240 11 284
1958007N03171 1958 2 WP MM OPHELIA 1958-01-08 06:00:00 TS 6.59869 165.952 940 tokyo main 1777 1766 OOO______OPO__ jtwc_wp WP011958 6.60000 166.000 100 3 6.60000 165.900 9 940 0 0 0 6.60000 165.900 6 145 940 6.60000 166.000 TC 100 6.59213 165.913 4 90 6.60000 166.000 100 960 240 11 284
1958007N03171 1958 2 WP MM OPHELIA 1958-01-08 09:00:00 TS 6.73508 165.406 main 1766 1758 PPP______PPP__ WP011958 6.69999 165.450 100 3 6.80741 165.342 9 942 0 0 6.80741 165.342 6 145 942 6.69999 165.450 TC 100 6.69568 165.402 4 95 6.69999 165.450 100 959 240 11 284
1958007N03171 1958 2 WP MM OPHELIA 1958-01-08 12:00:00 TS 6.86667 164.867 945 tokyo main 1764 1747 OOO______OOO__ jtwc_wp WP011958 6.80000 164.900 100 3 7.00000 164.800 9 945 0 0 0 7.00000 164.800 6 145 944 6.80000 164.900 TC 100 6.80000 164.900 4 100 6.80000 164.900 100 959 240 11 284
1958007N03171 1958 2 WP MM OPHELIA 1958-01-08 15:00:00 TS 6.99081 164.350 main 1742 1726 PPP______PPP__ WP011958 6.89992 164.392 110 3 7.16493 164.250 9 947 0 0 7.17243 164.250 6 140 947 6.89992 164.392 TC 110 6.90770 164.421 4 105 6.89992 164.392 110 958 240 10 283
1958007N03171 1958 2 WP MM OPHELIA 1958-01-08 18:00:00 TS 7.10239 163.841 950 tokyo main 1720 1705 OOO______OPO__ jtwc_wp WP011958 7.00000 163.900 120 4 7.30000 163.700 9 950 0 0 0 7.30000 163.700 6 136 950 7.00000 163.900 TC 120 7.01437 163.945 4 110 7.00000 163.900 120 958 240 10 281
1958007N03171 1958 2 WP MM OPHELIA 1958-01-08 21:00:00 TS 7.19388 163.339 main 1699 1676 PPP______PPP__ WP011958 7.09234 163.430 120 4 7.41493 163.150 9 952 0 0 7.35743 163.150 6 131 952 7.09234 163.430 TC 120 7.11387 163.446 4 115 7.09234 163.430 120 957 240 11 280
1958007N03171 1958 2 WP MM OPHELIA 1958-01-09 00:00:00 TS 7.28333 162.800 955 tokyo main 1676 1641 OOO______OOO__ jtwc_wp WP011958 7.20000 162.900 120 4 7.50000 162.600 9 955 0 0 0 7.40000 162.600 6 126 955 7.20000 162.900 TC 120 7.20000 162.900 4 120 7.20000 162.900 120 957 240 12 281
1958007N03171 1958 2 WP MM OPHELIA 1958-01-09 03:00:00 TS 7.41481 162.182 main 1641 1608 PPP______PPP__ WP011958 7.37255 162.223 120 4 7.57237 162.065 9 957 0 0 7.52234 162.073 6 121 957 7.37255 162.223 TC 120 7.27651 162.283 4 120 7.37255 162.223 120 956 210 13 280
1958007N03171 1958 2 WP MM OPHELIA 1958-01-09 06:00:00 TS 7.50623 161.520 960 tokyo main 1601 1562 OOO______OPO__ jtwc_wp WP011958 7.50000 161.500 120 4 7.60000 161.500 9 960 0 0 0 7.60000 161.500 6 116 960 7.50000 161.500 TC 120 7.33738 161.617 4 120 7.50000 161.500 120 956 180 13 273
1958007N03171 1958 2 WP MM OPHELIA 1958-01-09 09:00:00 TS 7.48315 160.863 main 1562 1505 PPP______PPP__ WP011958 7.47980 160.857 120 4 7.56497 160.865 9 960 0 0 7.51499 160.822 6 116 961 7.47980 160.857 TC 120 7.37955 160.918 4 120 7.47980 160.857 120 956 180 13 266
1958007N03171 1958 2 WP MM OPHELIA 1958-01-09 12:00:00 TS 7.41667 160.183 960 tokyo main 1505 1460 OOO______OOO__ jtwc_wp WP011958 7.40000 160.200 120 4 7.50000 160.200 9 960 0 0 0 7.40000 160.100 6 116 962 7.40000 160.200 TC 120 7.40000 160.200 4 120 7.40000 160.200 120 957 180 14 266
1958007N03171 1958 2 WP MM OPHELIA 1958-01-09 15:00:00 TS 7.37420 159.467 main 1460 1407 PPP______PPP__ WP011958 7.34248 159.457 120 4 7.45737 159.558 9 960 0 0 7.39243 159.393 6 116 962 7.34248 159.457 TC 120 7.36798 159.481 4 120 7.34248 159.457 120 957 180 14 267
1958007N03171 1958 2 WP MM OPHELIA 1958-01-09 18:00:00 TS 7.33664 158.742 960 tokyo main 1401 1367 OOO______OPO__ jtwc_wp WP011958 7.30000 158.700 120 4 7.40000 158.900 9 960 0 0 0 7.40000 158.700 6 116 962 7.30000 158.700 TC 120 7.31982 158.749 4 120 7.30000 158.700 120 958 180 14 266
1958007N03171 1958 2 WP MM OPHELIA 1958-01-09 21:00:00 TS 7.27604 158.036 main 1361 1327 PPP______PPP__ WP011958 7.26239 157.985 120 4 7.25493 158.207 9 962 0 0 7.32740 158.035 6 116 962 7.26239 157.985 TC 120 7.28673 158.018 4 120 7.26239 157.985 120 958 210 14 268
1958007N03171 1958 2 WP MM OPHELIA 1958-01-10 00:00:00 TS 7.28333 157.350 965 tokyo main 1321 1300 OOO______OOO__ jtwc_wp WP011958 7.30000 157.300 120 4 7.20000 157.500 9 965 0 0 0 7.30000 157.400 6 116 963 7.30000 157.300 TC 120 7.30000 157.300 4 120 7.30000 157.300 120 959 240 13 277
1958007N03171 1958 2 WP MM OPHELIA 1958-01-10 03:00:00 TS 7.45049 156.694 main 1310 1290 PPP______PPP__ WP011958 7.48484 156.650 115 4 7.39743 156.793 9 967 0 0 7.42729 156.815 6 111 966 7.48484 156.650 TC 115 7.42369 156.607 4 117 7.48484 156.650 115 961 240 14 286
1958007N03171 1958 2 WP MM OPHELIA 1958-01-10 06:00:00 TS 7.66534 156.038 970 tokyo main 1295 1278 OOO______OPO__ jtwc_wp WP011958 7.70000 156.000 110 3 7.70000 156.100 9 970 0 0 0 7.60000 156.200 6 106 969 7.70000 156.000 TC 110 7.59201 155.928 4 115 7.70000 156.000 110 964 240 14 286
1958007N03171 1958 2 WP MM OPHELIA 1958-01-10 09:00:00 TS 7.82233 155.348 main 1274 1260 PPP______PPP__ WP011958 7.82992 155.307 110 3 7.96486 155.443 9 970 0 0 7.71502 155.465 6 106 970 7.82992 155.307 TC 110 7.76434 155.260 4 112 7.82992 155.307 110 967 240 14 281
1958007N03171 1958 2 WP MM OPHELIA 1958-01-10 12:00:00 TS 7.93333 154.650 970 tokyo main 1260 1247 OOO______OOO__ jtwc_wp WP011958 7.90000 154.600 110 3 8.20000 154.800 9 970 0 0 0 7.80000 154.700 6 106 972 7.90000 154.600 TC 110 7.90000 154.600 4 110 7.90000 154.600 110 970 240 14 277
1958007N03171 1958 2 WP MM OPHELIA 1958-01-10 15:00:00 TS 7.99373 153.955 main 1247 1228 PPP______PPP__ WP011958 7.91495 153.885 110 3 8.40989 154.150 9 972 0 0 7.86488 153.985 6 101 973 7.91495 153.885 TC 110 7.94276 153.943 4 106 7.91495 153.885 110 973 240 14 273
1958007N03171 1958 2 WP MM OPHELIA 1958-01-10 18:00:00 TS 8.00742 153.282 975 tokyo main 1228 1215 OOO______OPO__ jtwc_wp WP011958 7.90000 153.200 110 3 8.50000 153.500 9 975 0 0 0 7.90000 153.300 5 97 975 7.90000 153.200 TC 110 7.94452 153.292 4 102 7.90000 153.200 110 976 240 13 270
1958007N03171 1958 2 WP MM OPHELIA 1958-01-10 21:00:00 TS 7.99141 152.644 main 1213 1206 PPP______PPP__ WP011958 7.90735 152.585 102 3 8.39493 152.842 9 977 0 0 7.90746 152.620 5 92 978 7.90735 152.585 TC 102 7.92403 152.646 4 98 7.90735 152.585 102 979 240 12 267
1958007N03171 1958 2 WP MM OPHELIA 1958-01-11 00:00:00 TS 7.95000 152.033 980 tokyo main 1205 1189 OOO______OOO__ jtwc_wp WP011958 7.90000 152.000 95 2 8.20000 152.200 9 980 0 0 0 7.90000 152.000 5 87 982 7.90000 152.000 TC 95 7.90000 152.000 4 95 7.90000 152.000 95 983 240 12 265
1958007N03171 1958 2 WP MM OPHELIA 1958-01-11 03:00:00 TS 7.89162 151.450 main 1189 1175 PPP______PPP__ WP011958 7.84235 151.415 92 2 8.02731 151.607 9 980 0 0 7.89980 151.493 5 87 982 7.84235 151.415 TC 92 7.89559 151.354 4 93 7.84235 151.415 92 980 270 12 265
1958007N03171 1958 2 WP MM OPHELIA 1958-01-11 06:00:00 TS 7.84867 150.851 980 tokyo main 1175 1161 OOO______OPO__ jtwc_wp WP011958 7.80000 150.800 90 2 7.90000 151.000 9 980 0 0 0 7.90000 151.000 5 87 982 7.80000 150.800 TC 90 7.89203 150.707 4 92 7.80000 150.800 90 978 300 12 269
1958007N03171 1958 2 WP MM OPHELIA 1958-01-11 09:00:00 TS 7.85994 150.192 main 1162 1144 PPP______PPP__ WP011958 7.83496 150.115 90 2 7.86995 150.315 9 980 0 0 7.89237 150.437 5 87 982 7.83496 150.115 TC 90 7.89246 150.057 4 91 7.83496 150.115 90 978 300 13 272
1958007N03171 1958 2 WP MM OPHELIA 1958-01-11 12:00:00 TS 7.90000 149.500 980 tokyo main 1144 1131 OOO______OOO__ jtwc_wp WP011958 7.90000 149.400 90 2 7.90000 149.600 9 980 0 0 0 7.90000 149.800 5 87 982 7.90000 149.400 TC 90 7.90000 149.400 4 90 7.90000 149.400 90 979 300 14 273
1958007N03171 1958 2 WP MM OPHELIA 1958-01-11 15:00:00 TS 7.94444 148.795 main 1131 1129 PPP______PPP__ WP011958 7.95742 148.693 92 2 7.94242 148.893 9 982 0 0 7.94252 149.065 5 82 983 7.95742 148.693 TC 92 7.90942 148.732 4 92 7.95742 148.693 92 980 300 14 274
1958007N03171 1958 2 WP MM OPHELIA 1958-01-11 18:00:00 TS 7.98786 148.093 985 tokyo main 1134 1131 OOO______OPO__ jtwc_wp WP011958 8.00000 148.000 95 2 8.00000 148.200 9 985 0 0 0 8.00000 148.300 4 77 984 8.00000 148.000 TC 95 7.92714 148.057 4 95 8.00000 148.000 95 981 300 14 273
1958007N03171 1958 2 WP MM OPHELIA 1958-01-11 21:00:00 TS 8.01050 147.426 main 1131 1131 PPP______PPP__ WP011958 7.99983 147.350 97 3 8.05736 147.543 9 982 0 0 8.04988 147.585 4 82 982 7.99983 147.350 TC 97 7.95628 147.379 4 97 7.99983 147.350 97 980 300 13 272
1958007N03171 1958 2 WP MM OPHELIA 1958-01-12 00:00:00 TS 8.03333 146.767 980 tokyo main 1131 1131 OOO______OOO__ jtwc_wp WP011958 8.00000 146.700 100 3 8.10000 146.900 9 980 0 0 0 8.10000 146.900 5 87 980 8.00000 146.700 TC 100 8.00000 146.700 4 100 8.00000 146.700 100 979 300 13 272
1958007N03171 1958 2 WP MM OPHELIA 1958-01-12 03:00:00 TS 8.06645 146.087 main 1144 1144 PPP______PPP__ WP011958 8.03496 146.000 105 3 8.09990 146.250 9 977 0 0 8.14982 146.250 5 92 976 8.03496 146.000 TC 105 8.04409 146.021 4 102 8.03496 146.000 105 975 300 14 274
1958007N03171 1958 2 WP MM OPHELIA 1958-01-12 06:00:00 TS 8.11744 145.407 975 tokyo main 1150 1150 OOO______OPO__ jtwc_wp WP011958 8.10000 145.300 110 3 8.10000 145.600 9 975 0 0 0 8.20000 145.600 5 97 973 8.10000 145.300 TC 110 8.10463 145.342 4 105 8.10000 145.300 110 972 300 13 275
1958007N03171 1958 2 WP MM OPHELIA 1958-01-12 09:00:00 TS 8.18287 144.743 main 1173 1173 PPP______PPP__ WP011958 8.18486 144.642 110 3 8.11986 144.957 9 972 0 0 8.23492 144.907 5 97 970 8.18486 144.642 TC 110 8.18785 144.668 4 107 8.18486 144.642 110 968 300 13 277
1958007N03171 1958 2 WP MM OPHELIA 1958-01-12 12:00:00 TS 8.28333 144.083 970 tokyo main 1197 1197 OOO______OOO__ jtwc_wp WP011958 8.30000 144.000 110 3 8.20000 144.300 9 970 0 0 0 8.30000 144.200 5 97 967 8.30000 144.000 TC 110 8.30000 144.000 4 110 8.30000 144.000 110 965 300 13 280
1958007N03171 1958 2 WP MM OPHELIA 1958-01-12 15:00:00 TS 8.42662 143.410 main 1229 1229 PPP______PPP__ WP011958 8.43489 143.350 115 4 8.37746 143.600 9 965 0 0 8.42749 143.478 5 101 963 8.43489 143.350 TC 115 8.45007 143.331 4 117 8.43489 143.350 115 962 330 14 284
1958007N03171 1958 2 WP MM OPHELIA 1958-01-12 18:00:00 TS 8.60453 142.745 960 tokyo main 1247 1240 OOO______OPO__ jtwc_wp WP011958 8.60000 142.700 120 4 8.60000 142.900 9 960 0 0 0 8.60000 142.800 6 106 960 8.60000 142.700 TC 120 8.62721 142.670 4 125 8.60000 142.700 120 960 360 14 286
1958007N03171 1958 2 WP MM OPHELIA 1958-01-12 21:00:00 TS 8.80379 142.101 main 1243 1238 PPP______PPP__ WP011958 8.79996 142.035 130 4 8.80739 142.235 9 957 0 0 8.79974 142.242 6 111 957 8.79996 142.035 TC 130 8.81573 142.025 4 132 8.79996 142.035 130 957 360 13 288
1958007N03171 1958 2 WP MM OPHELIA 1958-01-13 00:00:00 TS 9.00000 141.483 955 tokyo main 1242 1235 OOO______OOO__ jtwc_wp WP011958 9.00000 141.400 140 5 9.00000 141.600 9 955 0 0 0 9.00000 141.700 6 116 955 9.00000 141.400 TC 140 9.00000 141.400 4 140 9.00000 141.400 140 955 360 12 286
1958007N03171 1958 2 WP MM OPHELIA 1958-01-13 03:00:00 TS 9.15661 140.894 main 1246 1231 PPP______PPP__ WP011958 9.15731 140.842 140 5 9.15736 140.992 9 952 0 0 9.15750 141.057 6 116 954 9.15731 140.842 TC 140 9.15284 140.787 4 140 9.15731 140.842 140 955 360 12 285
1958007N03171 1958 2 WP MM OPHELIA 1958-01-13 06:00:00 TS 9.29995 140.316 950 tokyo main 1232 1218 OOO______OPO__ jtwc_wp WP011958 9.30000 140.300 140 5 9.30000 140.400 9 950 0 0 0 9.30000 140.400 6 116 953 9.30000 140.300 TC 140 9.29967 140.197 4 140 9.30000 140.300 140 955 360 12 284
1958007N03171 1958 2 WP MM OPHELIA 1958-01-13 09:00:00 TS 9.44317 139.714 main 1218 1214 PPP______PPP__ WP011958 9.44254 139.685 140 5 9.44240 139.800 9 947 0 0 9.44236 139.792 6 121 950 9.44254 139.685 TC 140 9.44666 139.634 4 140 9.44254 139.685 140 953 390 12 284
1958007N03171 1958 2 WP MM OPHELIA 1958-01-13 12:00:00 TS 9.60000 139.133 945 tokyo main 1217 1214 OOO______OOO__ jtwc_wp WP011958 9.60000 139.100 140 5 9.60000 139.200 9 945 0 0 0 9.60000 139.200 6 126 948 9.60000 139.100 TC 140 9.60000 139.100 4 140 9.60000 139.100 140 951 420 12 288
1958007N03171 1958 2 WP MM OPHELIA 1958-01-13 15:00:00 TS 9.79385 138.602 main 1222 1219 PPP______PPP__ WP011958 9.79981 138.635 135 4 9.80003 138.570 9 942 0 0 9.80003 138.570 6 135 944 9.79981 138.635 TC 135 9.76358 138.568 4 137 9.79981 138.635 135 949 420 11 291
1958007N03171 1958 2 WP MM OPHELIA 1958-01-13 18:00:00 TS 9.98914 138.111 940 tokyo main 1230 1225 OOO______OPO__ jtwc_wp WP011958 10.0000 138.200 130 4 10.0000 138.000 9 940 0 0 0 10.0000 138.000 6 145 941 10.0000 138.200 TC 130 9.93484 138.068 4 135 10.0000 138.200 130 948 420 10 290
1958007N03171 1958 2 WP MM OPHELIA 1958-01-13 21:00:00 TS 10.1377 137.631 main 1230 1200 PPP______PPP__ WP011958 10.1425 137.685 130 4 10.1423 137.562 9 940 0 0 10.1423 137.562 6 145 940 10.1425 137.685 TC 130 10.1137 137.608 4 132 10.1425 137.685 130 944 420 10 289
1958007N03171 1958 2 WP MM OPHELIA 1958-01-14 00:00:00 TS 10.3000 137.200 940 tokyo main 1200 1163 OOO______OOO__ jtwc_wp WP011958 10.3000 137.200 130 4 10.3000 137.200 9 940 0 0 0 10.3000 137.200 6 145 940 10.3000 137.200 TC 130 10.3000 137.200 4 130 10.3000 137.200 130 941 420 9 297
1958007N03171 1958 2 WP MM OPHELIA 1958-01-14 03:00:00 TS 10.5391 136.822 main 1163 1140 PPP______PPP__ WP011958 10.5499 136.813 127 4 10.5425 136.835 9 940 0 0 10.5500 136.828 6 145 939 10.5499 136.813 TC 127 10.4925 136.829 4 128 10.5499 136.813 127 946 360 8 305
1958007N03171 1958 2 WP MM OPHELIA 1958-01-14 06:00:00 TS 10.7820 136.502 940 tokyo main 1140 1110 OOO______OPO__ jtwc_wp WP011958 10.8000 136.500 125 4 10.8000 136.500 9 940 0 0 0 10.8000 136.500 6 145 939 10.8000 136.500 TC 125 10.6922 136.510 4 127 10.8000 136.500 125 952 300 7 305
1958007N03171 1958 2 WP MM OPHELIA 1958-01-14 09:00:00 TS 10.9555 136.222 main 1112 1093 PPP______PPP__ WP011958 10.9575 136.227 125 4 11.0075 136.177 9 940 0 0 10.9574 136.235 6 140 941 10.9575 136.227 TC 125 10.8958 136.236 4 126 10.9575 136.227 125 951 300 6 303
1958007N03171 1958 2 WP MM OPHELIA 1958-01-14 12:00:00 TS 11.1167 135.983 940 tokyo main 1093 1074 OOO______OOO__ jtwc_wp WP011958 11.1000 136.000 125 4 11.2000 135.900 9 940 0 0 0 11.1000 136.000 6 136 944 11.1000 136.000 TC 125 11.1000 136.000 4 125 11.1000 136.000 125 951 300 6 308
1958007N03171 1958 2 WP MM OPHELIA 1958-01-14 15:00:00 TS 11.3137 135.756 main 1077 1058 PPP______PPP__ WP011958 11.2925 135.785 125 4 11.4000 135.677 9 942 0 0 11.2925 135.735 6 131 947 11.2925 135.785 TC 125 11.3121 135.769 4 125 11.2925 135.785 125 951 300 6 314
1958007N03171 1958 2 WP MM OPHELIA 1958-01-14 18:00:00 TS 11.5204 135.562 945 tokyo main 1060 1044 OOO______OPO__ jtwc_wp WP011958 11.5000 135.600 125 4 11.6000 135.500 9 945 0 0 0 11.5000 135.500 6 126 950 11.5000 135.600 TC 125 11.5224 135.575 4 125 11.5000 135.600 125 951 300 5 319
1958007N03171 1958 2 WP MM OPHELIA 1958-01-14 21:00:00 TS 11.7252 135.395 main 1044 1037 PPP______PPP__ WP011958 11.7075 135.435 125 4 11.8075 135.328 9 947 0 0 11.7000 135.320 6 121 952 11.7075 135.435 TC 125 11.7215 135.419 4 125 11.7075 135.435 125 950 300 5 324
1958007N03171 1958 2 WP MM OPHELIA 1958-01-15 00:00:00 TS 11.9167 135.267 950 tokyo main 1040 1029 OOO______OOO__ jtwc_wp WP011958 11.9000 135.300 125 4 12.0000 135.200 9 950 0 0 0 11.9000 135.200 6 116 955 11.9000 135.300 TC 125 11.9000 135.300 4 125 11.9000 135.300 125 950 300 4 328
1958007N03171 1958 2 WP MM OPHELIA 1958-01-15 03:00:00 TS 12.0876 135.167 main 1032 1021 PPP______PPP__ WP011958 12.0650 135.178 125 4 12.1650 135.127 9 955 0 0 12.1150 135.135 6 111 957 12.0650 135.178 TC 125 12.0506 135.210 4 118 12.0650 135.178 125 960 330 4 334
1958007N03171 1958 2 WP MM OPHELIA 1958-01-15 06:00:00 TS 12.2300 135.109 960 tokyo main 1022 1022 OOO______OPO__ jtwc_wp WP011958 12.2000 135.100 125 4 12.3000 135.100 9 960 0 0 0 12.3000 135.100 6 106 960 12.2000 135.100 TC 125 12.1799 135.155 4 112 12.2000 135.100 125 971 360 3 342
1958007N03171 1958 2 WP MM OPHELIA 1958-01-15 09:00:00 TS 12.3399 135.088 main 1023 1023 PPP______PPP__ WP011958 12.3075 135.085 112 3 12.4075 135.100 9 960 0 0 12.4150 135.050 6 101 964 12.3075 135.085 TC 112 12.2943 135.122 4 106 12.3075 135.085 112 973 360 2 0
1958007N03171 1958 2 WP MM OPHELIA 1958-01-15 12:00:00 TS 12.4333 135.083 960 tokyo main 1025 1025 OOO______OOO__ jtwc_wp WP011958 12.4000 135.100 100 3 12.5000 135.100 9 960 0 0 0 12.5000 135.000 5 97 968 12.4000 135.100 TC 100 12.4000 135.100 4 100 12.4000 135.100 100 976 360 2 353
1958007N03171 1958 2 WP MM OPHELIA 1958-01-15 15:00:00 TS 12.5362 135.064 main 1026 1017 PPP______PPP__ WP011958 12.5000 135.107 95 2 12.6075 135.050 9 965 0 0 12.6075 134.935 5 87 972 12.5000 135.107 TC 95 12.5022 135.077 4 90 12.5000 135.107 95 979 360 2 346
1958007N03171 1958 2 WP MM OPHELIA 1958-01-15 18:00:00 TS 12.6404 135.033 970 tokyo main 1017 1017 OOO______OPO__ jtwc_wp WP011958 12.6000 135.100 90 2 12.7000 135.000 9 970 0 0 0 12.7000 134.900 4 77 976 12.6000 135.100 TC 90 12.6025 135.053 4 80 12.6000 135.100 90 982 360 2 343
1958007N03171 1958 2 WP MM OPHELIA 1958-01-15 21:00:00 TS 12.7289 135.000 main 1019 1019 PPP______PPP__ WP011958 12.7000 135.060 75 1 12.7575 134.978 9 975 0 0 12.7575 134.920 4 72 980 12.7000 135.060 TC 75 12.7016 135.027 4 70 12.7000 135.060 75 984 360 2 348
1958007N03171 1958 2 WP MM OPHELIA 1958-01-16 00:00:00 TS 12.8000 135.000 980 tokyo main 1021 1021 OOO______OOO__ jtwc_wp WP011958 12.8000 135.000 60 0 12.8000 135.000 9 980 0 0 0 12.8000 135.000 4 68 984 12.8000 135.000 TC 60 12.8000 135.000 2 60 12.8000 135.000 60 987 360 3 51
1958007N03171 1958 2 WP MM OPHELIA 1958-01-16 03:00:00 TS 12.8874 135.204 main 1045 1045 _PP___________ WP011958 -1 12.8799 135.175 9 985 0 0 12.8949 135.233 4 63 988 TC 2 3 68
1958007N03171 1958 2 WP MM OPHELIA 1958-01-16 06:00:00 TS 12.9000 135.250 990 tokyo main 1055 1009 _OO___________ -1 12.9000 135.200 9 990 0 0 0 12.9000 135.300 3 58 993 2 4 235
1958007N03171 1958 2 WP MM OPHELIA 1958-01-16 09:00:00 TS 12.6513 134.858 main 1009 941 _PP___________ -1 12.7127 134.789 9 990 0 0 12.5900 134.927 3 53 994 2 11 248
1958007N03171 1958 2 WP MM OPHELIA 1958-01-16 12:00:00 TS 12.5000 134.250 990 tokyo main 941 870 _OO___________ -1 12.6000 134.200 9 990 0 0 0 12.4000 134.300 3 48 995 12 275
1958007N03171 1958 2 WP MM OPHELIA 1958-01-16 15:00:00 TS 12.7666 133.587 main 872 828 _PP___________ -1 12.8102 133.633 9 990 0 0 12.7230 133.541 3 48 995 14 303
1958007N03171 1958 2 WP MM OPHELIA 1958-01-16 18:00:00 TS 13.2500 133.050 990 tokyo main 833 814 _OO___________ -1 13.2000 133.200 9 990 0 0 0 13.3000 132.900 3 48 995 12 325
1958007N03171 1958 2 WP MM OPHELIA 1958-01-16 21:00:00 TS 13.7710 132.870 main 821 821 _PP___________ -1 13.6273 133.075 9 990 0 0 13.9146 132.665 3 43 997 11 352
1958007N03171 1958 2 WP MM OPHELIA 1958-01-17 00:00:00 TS 14.3000 132.900 990 tokyo main 835 835 _OO___________ -1 14.1000 133.100 9 990 0 0 0 14.5000 132.700 2 38 1000 10 5
1958007N03171 1958 2 WP MM OPHELIA 1958-01-17 03:00:00 TS 14.7112 132.959 main 858 858 _PP___________ -1 14.5425 133.070 9 995 0 0 14.8800 132.847 2 38 1001 8 14
1958007N03171 1958 2 WP MM OPHELIA 1958-01-17 06:00:00 TS 15.1143 133.100 1000 tokyo main 883 883 _OO___________ -1 15.0000 133.100 9 1000 0 0 0 15.2000 133.100 2 38 1002 9 21
1958007N03171 1958 2 WP MM OPHELIA 1958-01-17 09:00:00 TS 15.5583 133.297 main 924 924 _PP___________ -1 15.4900 133.222 9 1005 0 0 15.5925 133.335 2 33 1005 10 27
1958007N03171 1958 2 WP MM OPHELIA 1958-01-17 12:00:00 TS 16.0000 133.560 1010 tokyo main 971 971 _OO___________ -1 16.0000 133.400 2 1010 0 0 0 16.0000 133.600 1 29 1008 10 33
1958007N03171 1958 2 WP MM OPHELIA 1958-01-17 15:00:00 TS 16.4074 133.878 main 1020 1020 __P___________ -1 2 0 0 16.4074 133.878 1 1009 10 38
1958007N03171 1958 2 WP MM OPHELIA 1958-01-17 18:00:00 TS 16.8000 134.200 main 1068 1068 __O___________ -1 16.8000 134.200 0 1010 10 42
1958007N03171 1958 2 WP MM OPHELIA 1958-01-17 21:00:00 TS 17.1602 134.582 main 1127 1127 __P___________ -1 17.1602 134.582 0 1010 10 48
1958007N03171 1958 2 WP MM OPHELIA 1958-01-18 00:00:00 TS 17.5000 135.000 main 1180 __O___________ -1 17.5000 135.000 0 1010 11 50

Digital Typhoon Data and Search

About IBTrACS Database

This database is a web-friendly format of International Best Track Archive for Climate Stewardship (IBTrACS), a global best track data archive curated by NOAA dating back to 1842.

Updated: 2021-10-08